Time;durP1;ratioP1;P1;durP2;ratioP2;P2;SDS_P1;SDS_P2;PMS_P1;PMS_P2;Temp;Humidity;BMP_temperature;BMP_pressure;BME280_temperature;BME280_humidity;BME280_pressure;Samples;Min_cycle;Max_cycle;Signal;HPM_P1;HPM_P2
2023/01/28 00:02:03;;;;;;;15.90;11.85;;;2.00;99.90;;;;;;5058013;28;20048;-81
2023/01/28 00:04:29;;;;;;;19.00;12.20;;;2.00;99.90;;;;;;5057660;28;20073;-83
2023/01/28 00:06:55;;;;;;;18.50;12.20;;;2.00;99.90;;;;;;5045217;28;20044;-86
2023/01/28 00:09:21;;;;;;;18.40;12.60;;;2.00;99.90;;;;;;5060318;28;20052;-80
2023/01/28 00:11:46;;;;;;;17.10;12.50;;;2.10;99.90;;;;;;5024130;28;20044;-80
2023/01/28 00:14:12;;;;;;;14.80;11.75;;;2.10;99.90;;;;;;5054785;28;20078;-81
2023/01/28 00:16:38;;;;;;;14.95;12.15;;;2.00;99.90;;;;;;5072249;28;20048;-81
2023/01/28 00:19:04;;;;;;;16.85;12.48;;;2.00;99.90;;;;;;5040550;28;20067;-81
2023/01/28 00:21:29;;;;;;;16.33;12.55;;;2.00;99.90;;;;;;5036769;28;20052;-81
2023/01/28 00:23:55;;;;;;;19.75;12.63;;;2.00;99.90;;;;;;5051398;28;20052;-81
2023/01/28 00:26:23;;;;;;;20.20;13.48;;;2.00;99.90;;;;;;5045878;28;20039;-83
2023/01/28 00:28:49;;;;;;;15.60;12.32;;;2.00;99.90;;;;;;5053316;28;20185;-80
2023/01/28 00:31:16;;;;;;;14.93;11.88;;;2.00;99.90;;;;;;5071246;28;20070;-80
2023/01/28 00:33:43;;;;;;;14.98;11.90;;;2.00;99.90;;;;;;5060697;28;21461;-80
2023/01/28 00:36:09;;;;;;;17.50;12.35;;;1.90;99.90;;;;;;5065514;28;20696;-80
2023/01/28 00:38:35;;;;;;;15.40;11.52;;;1.90;99.90;;;;;;5032365;28;20062;-82
2023/01/28 00:41:15;;;;;;;14.02;11.70;;;1.90;99.90;;;;;;5057307;28;20119;-86
2023/01/28 00:43:43;;;;;;;16.05;12.40;;;1.90;99.90;;;;;;5064131;28;20048;-80
2023/01/28 00:46:11;;;;;;;15.38;12.38;;;1.90;99.90;;;;;;5042423;28;20049;-80
2023/01/28 00:48:38;;;;;;;16.20;12.70;;;1.90;99.90;;;;;;5039814;28;20048;-82
2023/01/28 00:51:04;;;;;;;13.40;11.65;;;1.90;99.90;;;;;;5043876;28;20109;-83
2023/01/28 00:53:30;;;;;;;13.05;10.88;;;1.90;99.90;;;;;;5049926;28;20036;-81
2023/01/28 00:55:56;;;;;;;13.38;11.00;;;1.90;99.90;;;;;;5054130;28;20051;-81
2023/01/28 00:58:23;;;;;;;14.45;10.10;;;1.90;99.90;;;;;;5076059;28;20756;-81
2023/01/28 01:00:49;;;;;;;13.30;10.77;;;1.90;99.90;;;;;;5058640;28;20044;-80
2023/01/28 01:03:17;;;;;;;12.05;9.52;;;1.90;99.90;;;;;;5070751;28;20040;-81
2023/01/28 01:05:43;;;;;;;13.77;10.43;;;1.80;99.90;;;;;;5068836;28;20098;-81
2023/01/28 01:08:09;;;;;;;11.40;9.23;;;1.80;99.90;;;;;;5030241;28;20056;-80
2023/01/28 01:10:35;;;;;;;11.85;10.38;;;1.80;99.90;;;;;;5060021;28;20048;-83
2023/01/28 01:13:01;;;;;;;11.13;9.38;;;1.80;99.90;;;;;;5058533;28;20111;-80
2023/01/28 01:15:27;;;;;;;11.15;9.77;;;1.80;99.90;;;;;;5065839;28;20135;-81
2023/01/28 01:17:52;;;;;;;11.20;9.18;;;1.80;99.90;;;;;;5072912;28;20048;-80
2023/01/28 01:20:21;;;;;;;13.55;10.52;;;1.80;99.90;;;;;;5071720;28;20053;-83
2023/01/28 01:22:47;;;;;;;11.27;9.48;;;1.80;99.90;;;;;;5068293;28;20059;-81
2023/01/28 01:25:14;;;;;;;10.93;9.80;;;1.80;99.90;;;;;;5042596;28;20047;-81
2023/01/28 01:27:41;;;;;;;11.90;10.05;;;1.80;99.90;;;;;;5073602;28;20048;-81
2023/01/28 01:30:08;;;;;;;12.43;11.10;;;1.80;99.90;;;;;;5039567;28;20048;-92
2023/01/28 01:32:34;;;;;;;11.57;10.13;;;1.80;99.90;;;;;;5058012;28;20056;-82
2023/01/28 01:35:00;;;;;;;13.07;9.95;;;1.90;99.90;;;;;;5072833;28;20060;-82
2023/01/28 01:37:27;;;;;;;12.65;9.68;;;1.80;99.90;;;;;;5056518;28;20059;-83
2023/01/28 01:39:53;;;;;;;10.85;9.30;;;1.80;99.90;;;;;;5058663;28;20402;-84
2023/01/28 01:42:19;;;;;;;13.80;10.00;;;1.80;99.90;;;;;;5059382;28;20046;-81
2023/01/28 01:45:11;;;;;;;13.35;10.68;;;1.80;99.90;;;;;;5087240;28;20042;-81
2023/01/28 01:48:01;;;;;;;15.75;11.77;;;1.80;99.90;;;;;;5066884;28;20076;-82
2023/01/28 01:50:41;;;;;;;14.93;11.27;;;1.80;99.90;;;;;;5055966;28;20083;-81
2023/01/28 01:53:17;;;;;;;14.60;11.30;;;1.80;99.90;;;;;;5054759;28;20072;-81
2023/01/28 01:55:47;;;;;;;17.67;11.57;;;1.80;99.90;;;;;;5059821;28;20394;-81
2023/01/28 01:58:17;;;;;;;14.15;11.63;;;1.80;99.90;;;;;;5042662;28;20394;-81
2023/01/28 02:00:43;;;;;;;16.63;12.27;;;1.90;99.90;;;;;;5058455;28;20496;-80
2023/01/28 02:03:10;;;;;;;13.82;11.07;;;1.80;99.90;;;;;;5057594;28;20055;-81
2023/01/28 02:05:37;;;;;;;14.30;10.82;;;1.80;99.90;;;;;;5058590;28;20044;-81
2023/01/28 02:08:21;;;;;;;15.63;10.20;;;1.80;99.90;;;;;;5035020;28;20040;-81
2023/01/28 02:10:52;;;;;;;14.80;11.27;;;1.80;99.90;;;;;;5050718;28;20036;-81
2023/01/28 02:13:21;;;;;;;16.42;10.73;;;1.90;99.90;;;;;;5068184;28;20046;-81
2023/01/28 02:15:48;;;;;;;14.48;11.75;;;1.90;99.90;;;;;;5058608;28;20076;-80
2023/01/28 02:18:14;;;;;;;15.77;11.27;;;1.80;99.90;;;;;;5074947;28;20028;-82
2023/01/28 02:21:02;;;;;;;13.93;10.93;;;1.80;99.90;;;;;;5040128;28;20094;-81
2023/01/28 02:23:42;;;;;;;15.10;10.75;;;1.80;99.90;;;;;;5073212;28;20047;-81
2023/01/28 02:26:23;;;;;;;13.98;11.02;;;1.80;99.90;;;;;;5055165;28;20040;-80
2023/01/28 02:29:03;;;;;;;15.23;10.82;;;1.80;99.90;;;;;;5057793;28;20097;-81
2023/01/28 02:31:41;;;;;;;14.85;10.50;;;1.80;99.90;;;;;;5059572;28;20123;-83
2023/01/28 02:34:28;;;;;;;14.90;10.35;;;1.80;99.90;;;;;;5066770;28;20045;-81
2023/01/28 02:36:58;;;;;;;14.02;10.43;;;1.80;99.90;;;;;;5063661;28;20048;-82
2023/01/28 02:39:30;;;;;;;14.75;9.23;;;1.90;99.90;;;;;;5070708;28;20053;-85
2023/01/28 02:42:03;;;;;;;13.05;9.18;;;1.80;99.90;;;;;;5046807;28;20054;-81
2023/01/28 02:44:28;;;;;;;12.48;8.73;;;1.80;99.90;;;;;;5066842;28;20823;-81
2023/01/28 02:49:51;;;;;;;12.93;8.70;;;1.80;99.90;;;;;;5072676;28;20441;-81
2023/01/28 02:55:25;;;;;;;10.93;7.85;;;1.80;99.90;;;;;;5055311;28;20044;-85
2023/01/28 02:58:00;;;;;;;13.98;8.93;;;1.80;99.90;;;;;;5046505;28;20135;-80
2023/01/28 03:00:44;;;;;;;11.80;8.23;;;1.80;99.90;;;;;;5057484;28;20040;-83
2023/01/28 03:03:38;;;;;;;12.32;8.05;;;1.80;99.90;;;;;;5070225;28;20036;-80
2023/01/28 03:06:11;;;;;;;12.07;8.35;;;1.80;99.90;;;;;;5070197;28;20474;-80
2023/01/28 03:36:54;;;;;;;;;;;1.80;99.90;;;;;;5071068;28;20095;-81
2023/01/28 03:39:28;;;;;;;13.00;8.20;;;1.70;99.90;;;;;;5071632;28;19920;-83
2023/01/28 03:42:04;;;;;;;11.23;7.97;;;1.70;99.90;;;;;;5057614;28;20071;-81
2023/01/28 03:47:14;;;;;;;14.35;9.30;;;1.70;99.90;;;;;;5054799;28;20048;-80
2023/01/28 03:49:44;;;;;;;12.18;7.85;;;1.70;99.90;;;;;;5055315;28;20045;-80
2023/01/28 03:52:11;;;;;;;12.48;8.63;;;1.70;99.90;;;;;;5056490;28;20482;-84
2023/01/28 03:54:37;;;;;;;13.57;9.15;;;1.70;99.90;;;;;;5075179;28;20052;-81
2023/01/28 03:57:04;;;;;;;14.05;9.13;;;1.70;99.90;;;;;;5051736;28;20059;-81
2023/01/28 03:59:31;;;;;;;12.18;8.55;;;1.70;99.90;;;;;;5044651;28;20081;-81
2023/01/28 04:01:56;;;;;;;12.63;9.02;;;1.70;99.90;;;;;;5061320;28;20367;-83
2023/01/28 04:04:23;;;;;;;13.35;8.95;;;1.70;99.90;;;;;;5050995;28;20051;-81
2023/01/28 04:06:53;;;;;;;12.93;8.40;;;1.70;99.90;;;;;;5068566;28;20524;-84
2023/01/28 04:09:22;;;;;;;13.80;9.80;;;1.60;99.90;;;;;;5059230;28;20044;-82
2023/01/28 04:11:49;;;;;;;13.07;9.02;;;1.70;99.90;;;;;;5058668;28;20132;-83
2023/01/28 04:14:19;;;;;;;12.02;8.82;;;1.70;99.90;;;;;;5062327;28;20048;-81
2023/01/28 04:16:45;;;;;;;11.80;8.80;;;1.70;99.90;;;;;;5065797;28;20409;-80
2023/01/28 04:19:14;;;;;;;12.15;8.98;;;1.70;99.90;;;;;;5042809;28;20119;-81
2023/01/28 04:21:40;;;;;;;10.57;8.13;;;1.70;99.90;;;;;;5044855;28;20569;-81
2023/01/28 04:24:06;;;;;;;11.30;8.57;;;1.70;99.90;;;;;;5042550;28;20131;-81
2023/01/28 04:26:32;;;;;;;13.02;9.32;;;1.70;99.90;;;;;;5049415;28;20477;-80
2023/01/28 04:28:58;;;;;;;15.15;9.50;;;1.70;99.90;;;;;;5041387;28;20109;-80
2023/01/28 04:31:23;;;;;;;11.73;8.65;;;1.70;99.90;;;;;;5041255;28;20170;-80
2023/01/28 04:33:49;;;;;;;12.18;9.48;;;1.70;99.90;;;;;;5061103;28;20122;-81
2023/01/28 04:36:16;;;;;;;12.32;9.52;;;1.70;99.90;;;;;;5045657;28;20052;-80
2023/01/28 04:38:41;;;;;;;15.57;9.50;;;1.70;99.90;;;;;;5055721;28;20052;-80
2023/01/28 04:41:07;;;;;;;12.63;8.45;;;1.70;99.90;;;;;;5054312;28;20048;-81
2023/01/28 04:43:33;;;;;;;11.80;8.68;;;1.70;99.90;;;;;;5061176;28;20051;-81
2023/01/28 04:45:59;;;;;;;12.50;9.63;;;1.70;99.90;;;;;;5055040;28;20505;-82
2023/01/28 04:48:24;;;;;;;13.55;9.48;;;1.70;99.90;;;;;;5089274;28;20049;-83
2023/01/28 04:50:50;;;;;;;12.85;9.27;;;1.70;99.90;;;;;;5057080;28;20075;-80
2023/01/28 04:53:16;;;;;;;10.93;8.75;;;1.70;99.90;;;;;;5065261;28;20044;-81
2023/01/28 04:55:44;;;;;;;12.13;9.35;;;1.60;99.90;;;;;;5087186;28;20047;-81
2023/01/28 04:58:09;;;;;;;12.30;9.20;;;1.70;99.90;;;;;;5089278;28;20052;-80
2023/01/28 05:00:35;;;;;;;12.60;9.07;;;1.60;99.90;;;;;;5092795;28;20051;-84
2023/01/28 05:03:01;;;;;;;12.63;8.90;;;1.60;99.90;;;;;;5092897;28;20044;-80
2023/01/28 05:05:26;;;;;;;13.45;9.38;;;1.60;99.90;;;;;;5072833;28;20037;-80
2023/01/28 05:07:54;;;;;;;12.40;9.23;;;1.50;99.90;;;;;;5061159;28;20058;-80
2023/01/28 05:10:21;;;;;;;12.02;9.13;;;1.50;99.90;;;;;;5070544;28;20047;-80
2023/01/28 05:12:47;;;;;;;12.95;8.38;;;1.50;99.90;;;;;;5074814;28;20115;-80
2023/01/28 05:15:17;;;;;;;10.15;8.13;;;1.50;99.90;;;;;;5092826;28;20048;-80
2023/01/28 05:17:44;;;;;;;11.30;8.68;;;1.50;99.90;;;;;;5059956;28;20047;-80
2023/01/28 05:20:13;;;;;;;12.98;8.95;;;1.50;99.90;;;;;;5076772;28;20086;-80
2023/01/28 05:22:40;;;;;;;12.00;8.63;;;1.50;99.90;;;;;;5048261;28;20049;-86
2023/01/28 05:25:07;;;;;;;10.95;8.85;;;1.50;99.90;;;;;;5082688;28;20074;-84
2023/01/28 05:27:33;;;;;;;11.30;8.77;;;1.50;99.90;;;;;;5086321;28;20032;-79
2023/01/28 05:29:59;;;;;;;11.57;8.85;;;1.50;99.90;;;;;;5075526;28;20047;-79
2023/01/28 05:32:25;;;;;;;12.50;8.85;;;1.60;99.90;;;;;;5064750;28;20075;-84
2023/01/28 05:34:50;;;;;;;12.80;8.95;;;1.50;99.90;;;;;;5049127;28;20127;-80
2023/01/28 05:37:16;;;;;;;11.60;9.27;;;1.50;99.90;;;;;;5058231;28;20173;-83
2023/01/28 05:39:42;;;;;;;13.63;9.70;;;1.50;99.90;;;;;;5067747;28;20417;-83
2023/01/28 05:42:08;;;;;;;14.05;8.73;;;1.50;99.90;;;;;;5069738;28;20059;-81
2023/01/28 05:44:35;;;;;;;12.90;9.32;;;1.50;99.90;;;;;;5087774;28;20473;-81
2023/01/28 05:47:00;;;;;;;14.65;9.82;;;1.40;99.90;;;;;;5062298;28;20154;-80
2023/01/28 05:49:26;;;;;;;14.48;10.43;;;1.50;99.90;;;;;;5079361;28;20084;-81
2023/01/28 05:51:52;;;;;;;15.32;10.55;;;1.40;99.90;;;;;;5075316;28;20522;-80
2023/01/28 05:54:18;;;;;;;14.10;9.85;;;1.50;99.90;;;;;;5058593;28;20082;-88
2023/01/28 05:56:44;;;;;;;16.92;10.85;;;1.40;99.90;;;;;;5054079;28;20087;-83
2023/01/28 05:59:10;;;;;;;14.45;10.38;;;1.40;99.90;;;;;;5072677;28;20056;-81
2023/01/28 06:01:36;;;;;;;14.98;10.48;;;1.40;99.90;;;;;;5068162;28;20524;-80
2023/01/28 06:04:02;;;;;;;15.82;11.13;;;1.50;99.90;;;;;;5090036;28;20109;-83
2023/01/28 06:06:28;;;;;;;14.75;10.50;;;1.40;99.90;;;;;;5074161;28;20560;-82
2023/01/28 06:08:54;;;;;;;14.68;11.15;;;1.40;99.90;;;;;;5077239;28;20048;-83
2023/01/28 06:11:20;;;;;;;13.88;10.55;;;1.40;99.90;;;;;;5054263;28;20423;-81
2023/01/28 06:13:46;;;;;;;13.70;10.43;;;1.50;99.90;;;;;;5059553;28;20135;-88
2023/01/28 06:16:12;;;;;;;14.63;10.50;;;1.40;99.90;;;;;;5083529;28;20163;-81
2023/01/28 06:18:38;;;;;;;12.90;9.60;;;1.40;99.90;;;;;;5067418;28;20063;-86
2023/01/28 06:21:03;;;;;;;20.15;13.05;;;1.40;99.90;;;;;;5078865;28;20123;-80
2023/01/28 06:23:29;;;;;;;20.30;16.27;;;1.40;99.90;;;;;;5061051;28;20284;-81
2023/01/28 06:25:56;;;;;;;15.15;11.30;;;1.50;99.90;;;;;;5080500;28;20514;-81
2023/01/28 06:28:23;;;;;;;15.77;12.13;;;1.40;99.90;;;;;;5056588;28;20123;-81
2023/01/28 06:30:50;;;;;;;15.65;12.30;;;1.40;99.90;;;;;;5087144;28;20039;-87
2023/01/28 06:33:17;;;;;;;11.88;9.93;;;1.40;99.90;;;;;;5073529;28;20172;-79
2023/01/28 06:35:43;;;;;;;16.08;9.57;;;1.50;99.90;;;;;;5087386;28;20048;-79
2023/01/28 06:38:10;;;;;;;11.43;8.50;;;1.40;99.90;;;;;;5073713;28;20044;-79
2023/01/28 06:40:36;;;;;;;12.50;8.85;;;1.40;99.90;;;;;;5056191;28;20056;-79
2023/01/28 06:43:02;;;;;;;12.68;8.88;;;1.40;99.90;;;;;;5093834;28;20044;-81
2023/01/28 06:45:28;;;;;;;12.25;9.13;;;1.40;99.90;;;;;;5072535;28;20478;-81
2023/01/28 06:47:54;;;;;;;12.30;9.32;;;1.50;99.90;;;;;;5079616;28;20044;-79
2023/01/28 06:50:20;;;;;;;14.15;9.75;;;1.40;99.90;;;;;;5084115;28;20459;-79
2023/01/28 06:52:45;;;;;;;14.25;9.60;;;1.40;99.90;;;;;;5069290;28;20044;-79
2023/01/28 06:55:11;;;;;;;13.95;10.30;;;1.50;99.90;;;;;;5080002;28;20551;-79
2023/01/28 06:57:38;;;;;;;15.57;10.50;;;1.40;99.90;;;;;;5066320;28;20048;-80
2023/01/28 07:00:09;;;;;;;13.82;9.95;;;1.40;99.90;;;;;;5083076;28;20048;-80
2023/01/28 07:02:38;;;;;;;14.50;9.95;;;1.40;99.90;;;;;;5063781;28;20052;-82
2023/01/28 07:05:05;;;;;;;14.90;10.90;;;1.40;99.90;;;;;;5070590;28;20558;-77
2023/01/28 07:07:31;;;;;;;16.20;10.77;;;1.40;99.90;;;;;;5074250;28;20126;-80
2023/01/28 07:09:56;;;;;;;46.80;26.25;;;1.40;99.90;;;;;;5070763;28;20096;-77
2023/01/28 07:12:22;;;;;;;83.63;40.42;;;1.40;99.90;;;;;;5076646;28;20384;-79
2023/01/28 07:14:48;;;;;;;44.92;24.27;;;1.40;99.90;;;;;;5089398;28;20036;-79
2023/01/28 07:17:14;;;;;;;32.97;18.95;;;1.40;99.90;;;;;;5056845;28;20098;-78
2023/01/28 07:19:39;;;;;;;34.03;19.23;;;1.40;99.90;;;;;;5072245;28;20479;-84
2023/01/28 07:22:05;;;;;;;20.10;12.98;;;1.40;99.90;;;;;;5057088;28;20039;-82
2023/01/28 07:24:31;;;;;;;17.20;11.15;;;1.40;99.90;;;;;;5063007;28;20113;-81
2023/01/28 07:27:00;;;;;;;15.40;11.88;;;1.40;99.90;;;;;;5064792;28;20123;-82
2023/01/28 07:29:26;;;;;;;15.60;11.07;;;1.30;99.90;;;;;;5058524;28;20051;-82
2023/01/28 07:31:52;;;;;;;16.67;11.50;;;1.30;99.90;;;;;;5041655;28;20142;-81
2023/01/28 07:34:17;;;;;;;17.27;12.32;;;1.30;99.90;;;;;;5083323;28;20055;-81
2023/01/28 07:36:43;;;;;;;17.13;11.85;;;1.30;99.90;;;;;;5056687;28;20140;-82
2023/01/28 07:39:09;;;;;;;18.40;11.73;;;1.30;99.90;;;;;;5091045;28;20046;-81
2023/01/28 07:41:34;;;;;;;16.23;11.45;;;1.30;99.90;;;;;;5063420;28;20074;-82
2023/01/28 07:44:00;;;;;;;18.92;11.88;;;1.30;99.90;;;;;;5079418;28;20449;-81
2023/01/28 07:46:27;;;;;;;15.85;11.63;;;1.30;99.90;;;;;;5058604;28;20056;-82
2023/01/28 07:48:53;;;;;;;17.42;11.10;;;1.10;99.90;;;;;;5075941;28;20043;-82
2023/01/28 07:51:18;;;;;;;17.90;11.98;;;0.90;99.90;;;;;;5090926;28;20449;-84
2023/01/28 07:53:44;;;;;;;19.13;11.57;;;0.80;99.90;;;;;;5072243;28;20072;-82
2023/01/28 07:56:12;;;;;;;21.13;12.77;;;0.70;99.90;;;;;;5057199;28;20047;-82
2023/01/28 07:58:38;;;;;;;20.17;12.85;;;0.50;99.90;;;;;;5085275;28;20044;-82
2023/01/28 08:01:03;;;;;;;18.83;12.65;;;0.40;99.90;;;;;;5062393;28;20050;-82
2023/01/28 08:03:29;;;;;;;17.85;12.25;;;0.30;99.90;;;;;;5053155;28;20047;-81
2023/01/28 08:05:56;;;;;;;18.65;12.30;;;0.40;99.90;;;;;;5061744;28;20049;-80
2023/01/28 08:08:23;;;;;;;18.38;12.05;;;0.30;99.90;;;;;;5078385;28;20613;-81
2023/01/28 08:10:49;;;;;;;18.05;12.10;;;0.30;99.90;;;;;;5065816;28;20044;-80
2023/01/28 08:16:47;;;;;;;20.60;13.02;;;0.30;99.90;;;;;;5086979;28;20542;-80
2023/01/28 08:19:13;;;;;;;20.63;11.68;;;0.30;99.90;;;;;;5081468;28;20044;-77
2023/01/28 08:21:38;;;;;;;19.05;12.38;;;0.30;99.90;;;;;;5084053;28;20051;-81
2023/01/28 08:24:05;;;;;;;18.42;12.27;;;0.30;99.90;;;;;;5091927;28;20043;-86
2023/01/28 08:26:30;;;;;;;19.08;12.18;;;0.20;99.90;;;;;;5078884;28;20040;-77
2023/01/28 08:28:56;;;;;;;18.92;11.80;;;0.20;99.90;;;;;;5075574;28;20086;-77
2023/01/28 08:31:21;;;;;;;20.42;11.52;;;0.30;99.90;;;;;;5083512;28;20044;-77
2023/01/28 08:33:47;;;;;;;19.83;11.55;;;0.20;99.90;;;;;;5090229;28;20047;-76
2023/01/28 08:36:13;;;;;;;20.05;11.23;;;0.30;99.90;;;;;;5077391;28;20055;-77
2023/01/28 08:38:39;;;;;;;18.70;11.48;;;0.20;99.90;;;;;;5091180;28;20055;-77
2023/01/28 08:41:04;;;;;;;19.15;12.07;;;0.20;99.90;;;;;;5094444;28;20062;-82
2023/01/28 08:43:30;;;;;;;17.75;11.52;;;0.20;99.90;;;;;;5056074;28;20044;-76
2023/01/28 08:45:56;;;;;;;20.33;12.70;;;0.30;99.90;;;;;;5090253;28;20122;-77
2023/01/28 08:48:21;;;;;;;18.42;12.25;;;0.50;99.90;;;;;;5080058;28;20035;-77
2023/01/28 08:50:47;;;;;;;18.65;11.68;;;0.50;99.90;;;;;;5088333;28;20048;-80
2023/01/28 08:53:18;;;;;;;18.40;10.68;;;0.60;99.90;;;;;;5081322;28;20397;-81
2023/01/28 08:56:02;;;;;;;17.02;11.57;;;0.60;99.90;;;;;;5076894;28;20043;-83
2023/01/28 08:58:28;;;;;;;18.98;11.65;;;0.50;99.90;;;;;;5081188;28;20046;-80
2023/01/28 09:00:53;;;;;;;17.00;10.88;;;0.50;99.90;;;;;;5073948;28;20613;-84
2023/01/28 09:03:19;;;;;;;17.52;10.57;;;0.40;99.90;;;;;;5061226;28;20036;-84
2023/01/28 09:05:45;;;;;;;18.63;11.50;;;0.40;99.90;;;;;;5059709;28;20047;-82
2023/01/28 09:08:13;;;;;;;16.75;10.02;;;0.50;99.90;;;;;;5066998;28;20518;-90
2023/01/28 09:10:40;;;;;;;15.10;10.00;;;0.50;99.90;;;;;;5094348;28;20039;-83
2023/01/28 09:13:08;;;;;;;18.63;11.05;;;0.80;99.90;;;;;;5078189;28;20055;-82
2023/01/28 09:15:34;;;;;;;19.60;9.85;;;0.90;99.90;;;;;;5085431;28;20054;-83
2023/01/28 09:18:00;;;;;;;15.27;9.85;;;1.00;99.90;;;;;;5070313;28;20040;-83
2023/01/28 09:20:26;;;;;;;14.40;9.27;;;1.10;99.90;;;;;;5072475;28;20054;-85
2023/01/28 09:22:52;;;;;;;15.30;9.27;;;1.20;99.90;;;;;;5085489;28;20039;-83
2023/01/28 09:25:18;;;;;;;15.75;10.25;;;1.30;99.90;;;;;;5071165;28;20051;-84
2023/01/28 09:27:43;;;;;;;14.95;8.93;;;1.30;99.90;;;;;;5062029;28;20488;-83
2023/01/28 09:30:10;;;;;;;12.13;8.52;;;1.40;99.90;;;;;;5078275;28;20410;-84
2023/01/28 09:32:36;;;;;;;14.00;9.05;;;1.50;99.90;;;;;;5080638;28;20107;-85
2023/01/28 09:35:02;;;;;;;12.48;8.63;;;1.40;99.90;;;;;;5059369;28;20105;-88
2023/01/28 09:37:28;;;;;;;13.98;8.77;;;1.40;99.90;;;;;;5084194;28;20044;-83
2023/01/28 09:39:53;;;;;;;12.20;8.20;;;1.40;99.90;;;;;;5070370;28;20054;-84
2023/01/28 09:42:51;;;;;;;12.48;7.38;;;1.40;99.90;;;;;;5072620;28;20139;-82
2023/01/28 09:45:20;;;;;;;12.82;8.13;;;1.50;99.90;;;;;;5057966;28;20088;-80
2023/01/28 09:47:50;;;;;;;10.27;7.28;;;1.50;99.90;;;;;;5077769;28;20459;-82
2023/01/28 09:50:23;;;;;;;14.68;9.23;;;1.50;99.90;;;;;;5074580;28;20052;-87
2023/01/28 09:52:52;;;;;;;13.85;9.23;;;1.50;99.90;;;;;;5088546;28;20047;-86
2023/01/28 09:55:29;;;;;;;10.65;7.15;;;1.50;99.90;;;;;;5083086;28;20049;-83
2023/01/28 09:57:55;;;;;;;12.35;7.95;;;1.60;99.90;;;;;;5091548;28;20199;-81
2023/01/28 10:00:32;;;;;;;11.98;8.18;;;1.70;99.90;;;;;;5092196;28;20130;-84
2023/01/28 10:03:21;;;;;;;10.65;7.90;;;1.80;99.90;;;;;;5076809;28;20104;-83
2023/01/28 10:06:13;;;;;;;9.88;7.15;;;2.00;99.90;;;;;;5064425;28;20047;-84
2023/01/28 10:08:51;;;;;;;24.25;12.68;;;2.20;99.90;;;;;;5088713;28;20455;-83
2023/01/28 10:11:42;;;;;;;10.57;7.13;;;2.40;99.90;;;;;;5076512;28;20463;-86
2023/01/28 10:14:31;;;;;;;10.95;7.78;;;2.60;99.90;;;;;;5094951;28;20043;-84
2023/01/28 10:17:20;;;;;;;10.05;7.55;;;2.70;99.90;;;;;;5045885;28;20052;-84
2023/01/28 10:20:16;;;;;;;12.10;6.78;;;2.80;99.90;;;;;;5069019;28;20416;-84
2023/01/28 10:23:11;;;;;;;9.77;6.43;;;2.80;99.90;;;;;;5067975;28;20055;-84
2023/01/28 10:25:39;;;;;;;10.85;7.45;;;2.90;99.90;;;;;;5081274;28;20040;-87
2023/01/28 10:28:13;;;;;;;11.93;8.10;;;3.10;99.90;;;;;;5085345;28;20043;-84
2023/01/28 10:30:43;;;;;;;18.35;10.48;;;3.30;99.90;;;;;;5071548;28;20457;-84
2023/01/28 10:33:29;;;;;;;12.55;8.13;;;3.60;99.90;;;;;;5068807;28;20549;-83
2023/01/28 10:35:56;;;;;;;10.13;7.32;;;3.70;99.90;;;;;;5073604;28;20081;-88
2023/01/28 10:38:26;;;;;;;7.95;6.43;;;3.80;99.90;;;;;;5076193;28;20063;-89
2023/01/28 10:40:57;;;;;;;10.82;6.80;;;3.80;99.90;;;;;;5077078;28;20079;-85
2023/01/28 10:43:24;;;;;;;8.07;6.38;;;3.80;99.90;;;;;;5076111;28;20389;-88
2023/01/28 10:46:08;;;;;;;12.20;7.78;;;3.70;99.90;;;;;;5074167;28;20040;-82
2023/01/28 10:48:52;;;;;;;9.82;6.88;;;3.50;99.90;;;;;;5073660;28;20076;-81
2023/01/28 10:51:29;;;;;;;10.32;7.05;;;3.40;99.90;;;;;;5071248;28;20048;-81
2023/01/28 10:53:54;;;;;;;26.60;14.00;;;3.10;99.90;;;;;;5080836;28;20511;-82
2023/01/28 10:56:34;;;;;;;10.52;7.50;;;3.00;99.90;;;;;;5050387;28;20039;-84
2023/01/28 10:59:19;;;;;;;8.10;5.78;;;3.00;99.90;;;;;;5083369;28;20040;-82
2023/01/28 11:01:52;;;;;;;9.70;7.07;;;3.00;99.90;;;;;;5085201;28;20130;-84
2023/01/28 11:04:23;;;;;;;9.10;6.03;;;3.00;99.90;;;;;;5078575;28;20130;-82
2023/01/28 11:07:15;;;;;;;10.82;6.38;;;3.10;99.90;;;;;;5078507;28;20077;-83
2023/01/28 11:09:48;;;;;;;11.45;6.68;;;3.10;99.90;;;;;;5077320;28;20069;-83
2023/01/28 11:12:26;;;;;;;10.00;6.70;;;3.10;99.90;;;;;;5073138;28;20055;-82
2023/01/28 11:15:03;;;;;;;9.70;6.78;;;3.20;99.90;;;;;;5077075;28;20055;-82
2023/01/28 11:17:32;;;;;;;7.18;5.78;;;3.30;99.90;;;;;;5073343;28;20052;-87
2023/01/28 11:20:00;;;;;;;8.30;6.22;;;3.30;99.90;;;;;;5068286;28;20050;-84
2023/01/28 11:22:31;;;;;;;8.52;5.82;;;3.40;99.90;;;;;;5076212;28;20048;-83
2023/01/28 11:25:00;;;;;;;8.63;6.20;;;3.50;99.90;;;;;;5093460;28;20051;-84
2023/01/28 11:27:29;;;;;;;9.57;6.95;;;3.70;99.90;;;;;;5081080;28;20087;-86
2023/01/28 11:30:03;;;;;;;9.35;6.88;;;4.00;99.90;;;;;;5069199;28;20489;-85
2023/01/28 11:32:30;;;;;;;9.25;6.90;;;4.40;99.90;;;;;;5091834;28;20509;-90
2023/01/28 11:34:59;;;;;;;9.90;7.38;;;4.70;99.90;;;;;;5082141;28;20095;-85
2023/01/28 11:37:27;;;;;;;11.43;8.38;;;5.10;99.90;;;;;;5088813;28;20126;-89
2023/01/28 11:40:15;;;;;;;9.25;7.05;;;5.20;99.90;;;;;;5083919;28;20476;-83
2023/01/28 11:42:41;;;;;;;10.50;7.07;;;5.30;99.90;;;;;;5090907;28;20122;-84
2023/01/28 11:45:20;;;;;;;10.00;7.28;;;5.30;99.90;;;;;;5070598;28;20108;-83
2023/01/28 11:48:12;;;;;;;10.65;6.18;;;5.30;99.90;;;;;;5088639;28;20050;-79
2023/01/28 11:50:49;;;;;;;9.82;7.35;;;5.30;99.90;;;;;;5073068;28;20055;-84
2023/01/28 11:53:39;;;;;;;9.32;6.85;;;5.30;99.90;;;;;;5075133;28;20042;-84
2023/01/28 12:00:10;;;;;;;9.80;6.68;;;5.30;99.90;;;;;;5101618;28;20034;-83
2023/01/28 12:03:19;;;;;;;11.02;7.70;;;5.40;99.90;;;;;;5077103;28;20086;-83
2023/01/28 12:05:57;;;;;;;11.40;7.32;;;5.60;99.90;;;;;;5062602;28;20048;-83
2023/01/28 12:08:50;;;;;;;11.52;8.20;;;5.60;99.90;;;;;;5073750;28;20460;-83
2023/01/28 12:14:51;;;;;;;11.30;8.05;;;5.80;99.90;;;;;;5062789;28;20051;-82
2023/01/28 12:17:36;;;;;;;12.23;8.70;;;6.00;99.90;;;;;;5082775;28;20052;-82
2023/01/28 12:20:21;;;;;;;12.65;7.40;;;6.10;99.90;;;;;;5064520;28;20087;-83
2023/01/28 12:23:16;;;;;;;14.93;8.82;;;6.00;99.90;;;;;;5069644;28;20051;-83
2023/01/28 12:26:03;;;;;;;9.32;7.28;;;6.10;99.90;;;;;;5086226;28;20055;-82
2023/01/28 12:28:55;;;;;;;9.38;7.05;;;6.00;99.90;;;;;;5070737;28;20043;-83
2023/01/28 12:31:47;;;;;;;12.40;8.02;;;5.90;99.90;;;;;;5071180;28;20043;-83
2023/01/28 12:34:18;;;;;;;13.20;8.63;;;5.90;99.90;;;;;;5089274;28;20112;-83
2023/01/28 12:37:11;;;;;;;11.48;8.15;;;5.80;99.90;;;;;;5077837;28;20618;-83
2023/01/28 12:39:42;;;;;;;12.27;7.88;;;5.70;99.90;;;;;;5084908;28;20079;-82
2023/01/28 12:42:16;;;;;;;13.35;8.27;;;5.40;99.90;;;;;;5087179;28;20051;-82
2023/01/28 12:44:58;;;;;;;12.95;8.68;;;5.00;99.90;;;;;;5086686;28;20389;-83
2023/01/28 12:47:33;;;;;;;31.20;16.08;;;4.70;99.90;;;;;;5089907;28;20035;-82
2023/01/28 12:50:09;;;;;;;136.45;57.78;;;4.60;99.90;;;;;;5086055;28;20035;-83
2023/01/28 12:52:38;;;;;;;;;;;4.40;99.90;;;;;;5073332;28;20051;-84
2023/01/28 12:55:32;;;;;;;18.02;10.95;;;4.30;99.90;;;;;;5080056;28;19924;-83
2023/01/28 12:57:58;;;;;;;14.00;9.52;;;4.30;99.90;;;;;;5087258;28;20097;-83
2023/01/28 13:00:40;;;;;;;16.52;12.88;;;4.40;99.90;;;;;;5090582;28;20093;-83
2023/01/28 13:03:30;;;;;;;18.70;14.68;;;4.60;99.90;;;;;;5076031;28;20040;-83
2023/01/28 13:06:05;;;;;;;66.82;50.78;;;4.70;99.90;;;;;;5081634;28;20390;-83
2023/01/28 13:08:31;;;;;;;27.77;19.23;;;4.70;99.90;;;;;;5074886;28;20482;-84
2023/01/28 13:11:00;;;;;;;39.92;25.63;;;4.80;99.90;;;;;;5079258;28;20097;-82
2023/01/28 13:13:40;;;;;;;12.90;8.25;;;4.80;99.90;;;;;;5071777;28;20284;-84
2023/01/28 13:16:09;;;;;;;11.23;8.35;;;4.90;99.90;;;;;;5075492;28;20059;-83
2023/01/28 13:18:44;;;;;;;10.98;5.82;;;5.10;99.90;;;;;;5071365;28;20048;-83
2023/01/28 13:21:13;;;;;;;12.77;10.00;;;5.40;99.90;;;;;;5086096;28;20048;-84
2023/01/28 13:23:50;;;;;;;10.35;6.85;;;5.60;99.90;;;;;;5065977;28;20047;-85
2023/01/28 13:26:19;;;;;;;12.38;8.10;;;5.50;99.90;;;;;;5075724;28;20476;-83
2023/01/28 13:28:50;;;;;;;16.25;12.27;;;5.50;99.90;;;;;;5073946;28;20055;-85
2023/01/28 13:31:22;;;;;;;10.30;6.28;;;5.30;99.90;;;;;;5068997;28;20501;-83
2023/01/28 13:33:54;;;;;;;11.02;7.00;;;5.10;99.90;;;;;;5088102;28;20035;-85
2023/01/28 13:36:30;;;;;;;17.58;8.80;;;5.00;99.90;;;;;;5073273;27;20097;-82
2023/01/28 13:39:05;;;;;;;19.20;9.25;;;5.00;99.90;;;;;;5104792;28;20063;-83
2023/01/28 13:41:44;;;;;;;19.55;10.82;;;5.00;99.90;;;;;;5060255;28;20094;-83
2023/01/28 13:44:30;;;;;;;21.10;10.52;;;4.90;99.90;;;;;;5087915;28;20040;-83
2023/01/28 13:46:59;;;;;;;23.30;12.40;;;4.80;99.90;;;;;;5059016;28;20047;-85
2023/01/28 13:49:42;;;;;;;24.95;14.15;;;4.70;99.90;;;;;;5087510;28;20428;-84